createdAt,value
2023-02-13T00:00:56.242Z,8.10
2023-02-13T00:03:23.675Z,8.10
2023-02-13T00:05:51.086Z,8.10
2023-02-13T00:08:18.405Z,8.10
2023-02-13T00:10:45.736Z,8.10
2023-02-13T00:13:13.027Z,8.10
2023-02-13T00:15:40.542Z,8.00
2023-02-13T00:18:07.666Z,8.00
2023-02-13T00:20:35.329Z,8.00
2023-02-13T00:23:02.831Z,8.00
2023-02-13T00:25:32.628Z,8.00
2023-02-13T00:28:00.001Z,7.90
2023-02-13T00:30:27.329Z,8.00
2023-02-13T00:32:54.686Z,8.00
2023-02-13T00:35:21.925Z,8.00
2023-02-13T00:37:49.059Z,8.00
2023-02-13T00:40:16.224Z,8.00
2023-02-13T00:42:43.473Z,7.90
2023-02-13T00:45:10.814Z,8.00
2023-02-13T00:47:38.206Z,8.00
2023-02-13T00:50:05.896Z,8.00
2023-02-13T00:52:33.143Z,8.00
2023-02-13T00:55:00.396Z,7.90
2023-02-13T00:57:27.643Z,7.90
2023-02-13T00:59:55.022Z,7.90
2023-02-13T01:02:22.489Z,7.90
2023-02-13T01:04:49.739Z,7.90
2023-02-13T01:07:17.009Z,8.00
2023-02-13T01:09:44.629Z,7.90
2023-02-13T01:12:11.743Z,7.90
2023-02-13T01:14:39.357Z,7.90
2023-02-13T01:17:06.565Z,7.90
2023-02-13T01:19:33.931Z,7.90
2023-02-13T01:22:01.249Z,7.90
2023-02-13T01:24:30.361Z,7.90
2023-02-13T01:26:57.527Z,7.90
2023-02-13T01:29:24.986Z,7.90
2023-02-13T01:31:52.497Z,7.90
2023-02-13T01:34:19.841Z,7.90
2023-02-13T01:36:47.181Z,7.90
2023-02-13T01:39:14.738Z,7.90
2023-02-13T01:41:42.135Z,7.90
2023-02-13T01:44:48.609Z,7.90
2023-02-13T01:47:41.538Z,7.90
2023-02-13T01:50:11.778Z,7.90
2023-02-13T01:52:43.619Z,7.90
2023-02-13T01:55:12.401Z,7.90
2023-02-13T01:57:42.335Z,7.90
2023-02-13T02:00:16.129Z,7.90
2023-02-13T02:02:48.944Z,7.90
2023-02-13T02:05:19.405Z,7.90
2023-02-13T02:07:47.160Z,7.90
2023-02-13T02:10:18.228Z,7.90
2023-02-13T02:12:59.187Z,7.90
2023-02-13T02:15:27.241Z,7.90
2023-02-13T02:17:54.539Z,7.90
2023-02-13T02:20:42.976Z,7.90
2023-02-13T02:23:45.287Z,7.90
2023-02-13T02:26:27.321Z,7.90
2023-02-13T02:29:27.230Z,7.90
2023-02-13T02:32:13.059Z,7.90
2023-02-13T02:34:56.886Z,7.90
2023-02-13T02:37:53.827Z,7.90
2023-02-13T02:40:37.570Z,7.90
2023-02-13T02:43:26.521Z,7.80
2023-02-13T02:46:02.745Z,7.90
2023-02-13T02:49:02.462Z,7.90
2023-02-13T02:51:39.465Z,7.90
2023-02-13T02:54:53.555Z,7.90
2023-02-13T02:57:48.855Z,7.90
2023-02-13T03:00:38.587Z,7.90
2023-02-13T03:03:57.413Z,7.90
2023-02-13T03:06:37.674Z,7.90
2023-02-13T03:09:29.007Z,7.90
2023-02-13T03:12:15.542Z,7.90
2023-02-13T03:14:44.664Z,7.90
2023-02-13T03:17:33.043Z,7.90
2023-02-13T03:20:50.660Z,7.90
2023-02-13T03:23:30.769Z,7.90
2023-02-13T03:26:14.263Z,7.90
2023-02-13T03:29:15.120Z,7.90
2023-02-13T03:31:42.472Z,7.80
2023-02-13T03:34:13.937Z,7.80
2023-02-13T03:37:20.010Z,7.80
2023-02-13T03:39:53.177Z,7.80
2023-02-13T03:42:30.161Z,7.80
2023-02-13T03:45:20.307Z,7.80
2023-02-13T03:47:49.865Z,7.80
2023-02-13T03:50:18.632Z,7.80
2023-02-13T03:53:16.213Z,7.70
2023-02-13T03:56:06.155Z,7.80
2023-02-13T03:58:56.623Z,7.80
2023-02-13T04:01:28.066Z,7.80
2023-02-13T04:04:17.008Z,7.80
2023-02-13T04:06:49.754Z,7.70
2023-02-13T04:09:17.362Z,7.70
2023-02-13T04:11:58.292Z,7.70
2023-02-13T04:14:43.816Z,7.70
2023-02-13T04:17:25.767Z,7.70
2023-02-13T04:19:53.977Z,7.80
2023-02-13T04:22:21.223Z,7.80
2023-02-13T04:24:49.139Z,7.80
2023-02-13T04:27:17.888Z,7.70
2023-02-13T04:29:45.174Z,7.70
2023-02-13T04:32:13.179Z,7.80
2023-02-13T04:34:40.669Z,7.70
2023-02-13T04:37:07.977Z,7.70
2023-02-13T04:39:36.142Z,7.70
2023-02-13T04:42:03.524Z,7.80
2023-02-13T04:44:30.770Z,7.70
2023-02-13T04:46:58.007Z,7.70
2023-02-13T04:49:25.227Z,7.80
2023-02-13T04:51:52.601Z,7.80
2023-02-13T04:54:20.066Z,7.80
2023-02-13T04:56:47.260Z,7.70
2023-02-13T04:59:14.891Z,7.70
2023-02-13T05:01:42.139Z,7.70
2023-02-13T05:04:09.528Z,7.70
2023-02-13T05:06:37.456Z,7.70
2023-02-13T05:09:04.776Z,7.70
2023-02-13T05:11:32.067Z,7.60
2023-02-13T05:13:59.296Z,7.70
2023-02-13T05:16:26.371Z,7.70
2023-02-13T05:18:58.211Z,7.70
2023-02-13T05:21:43.963Z,7.70
2023-02-13T05:24:11.077Z,7.60
2023-02-13T05:26:38.401Z,7.60
2023-02-13T05:29:20.623Z,7.60
2023-02-13T05:31:50.305Z,7.60
2023-02-13T05:34:17.920Z,7.60
2023-02-13T05:36:45.578Z,7.60
2023-02-13T05:39:13.268Z,7.60
2023-02-13T05:41:40.690Z,7.70
2023-02-13T05:44:08.307Z,7.70
2023-02-13T05:46:37.985Z,7.70
2023-02-13T05:49:06.577Z,7.70
2023-02-13T05:51:33.889Z,7.70
2023-02-13T05:54:07.439Z,7.70
2023-02-13T05:56:34.906Z,7.70
2023-02-13T05:59:02.228Z,7.70
2023-02-13T06:01:29.605Z,7.60
2023-02-13T06:03:59.056Z,7.60
2023-02-13T06:06:27.624Z,7.60
2023-02-13T06:08:54.900Z,7.60
2023-02-13T06:11:22.320Z,7.60
2023-02-13T06:13:49.456Z,7.60
2023-02-13T06:16:16.827Z,7.60
2023-02-13T06:18:44.251Z,7.60
2023-02-13T06:21:11.550Z,7.60
2023-02-13T06:23:38.899Z,7.60
2023-02-13T06:28:35.735Z,7.70
2023-02-13T06:31:03.328Z,7.60
2023-02-13T06:33:30.796Z,7.60
2023-02-13T06:35:58.261Z,7.60
2023-02-13T06:38:25.588Z,7.60
2023-02-13T06:40:52.981Z,7.60
2023-02-13T06:43:20.364Z,7.60
2023-02-13T06:45:47.764Z,7.60
2023-02-13T06:48:15.637Z,7.60
2023-02-13T06:50:42.815Z,7.60
2023-02-13T06:53:09.933Z,7.60
2023-02-13T06:55:39.824Z,7.60
2023-02-13T06:58:07.329Z,7.60
2023-02-13T07:00:34.662Z,7.60
2023-02-13T07:03:03.848Z,7.60
2023-02-13T07:05:31.293Z,7.60
2023-02-13T07:07:59.300Z,7.60
2023-02-13T07:10:26.825Z,7.50
2023-02-13T07:13:05.254Z,7.60
2023-02-13T07:15:34.755Z,7.50
2023-02-13T07:18:02.737Z,7.50
2023-02-13T07:20:30.095Z,7.50
2023-02-13T07:23:04.846Z,7.50
2023-02-13T07:25:32.619Z,7.60
2023-02-13T07:28:04.778Z,7.50
2023-02-13T07:30:33.947Z,7.50
2023-02-13T07:33:05.500Z,7.50
2023-02-13T07:35:33.622Z,7.50
2023-02-13T07:38:01.149Z,7.50
2023-02-13T07:40:29.227Z,7.50
2023-02-13T07:42:57.248Z,7.50
2023-02-13T07:45:24.439Z,7.50
2023-02-13T07:47:51.668Z,7.50
2023-02-13T07:50:18.954Z,7.50
2023-02-13T07:52:57.104Z,7.50
2023-02-13T07:55:24.408Z,7.50
2023-02-13T07:57:52.207Z,7.50
2023-02-13T08:00:20.761Z,7.50
2023-02-13T08:02:48.092Z,7.50
2023-02-13T08:05:15.554Z,7.50
2023-02-13T08:07:42.849Z,7.50
2023-02-13T08:10:31.163Z,7.50
2023-02-13T08:12:58.616Z,7.50
2023-02-13T08:15:26.476Z,7.60
2023-02-13T08:17:53.708Z,7.50
2023-02-13T08:20:21.310Z,7.60
2023-02-13T08:22:48.714Z,7.60
2023-02-13T08:25:16.103Z,7.60
2023-02-13T08:27:43.444Z,7.60
2023-02-13T08:30:13.637Z,7.60
2023-02-13T08:32:53.582Z,7.60
2023-02-13T08:35:23.037Z,7.60
2023-02-13T08:37:50.412Z,7.60
2023-02-13T08:40:17.812Z,7.60
2023-02-13T08:42:45.179Z,7.60
2023-02-13T08:45:12.538Z,7.60
2023-02-13T08:47:40.603Z,7.60
2023-02-13T08:50:09.002Z,7.60
2023-02-13T08:52:36.671Z,7.60
2023-02-13T08:55:04.176Z,7.60
2023-02-13T08:57:31.791Z,7.60
2023-02-13T08:59:59.113Z,7.60
2023-02-13T09:02:26.524Z,7.60
2023-02-13T09:04:54.079Z,7.60
2023-02-13T09:07:21.237Z,7.60
2023-02-13T09:09:48.478Z,7.60
2023-02-13T09:12:15.626Z,7.60
2023-02-13T09:14:42.876Z,7.60
2023-02-13T09:17:10.080Z,7.70
2023-02-13T09:19:37.245Z,7.70
2023-02-13T09:22:05.427Z,7.70
2023-02-13T09:24:35.163Z,7.70
2023-02-13T09:27:08.378Z,7.70
2023-02-13T09:29:35.721Z,7.80
2023-02-13T09:32:05.079Z,7.80
2023-02-13T09:34:32.589Z,7.80
2023-02-13T09:37:00.054Z,7.80
2023-02-13T09:39:27.428Z,7.90
2023-02-13T09:41:55.673Z,7.90
2023-02-13T09:44:40.776Z,7.90
2023-02-13T09:47:29.885Z,7.90
2023-02-13T09:50:25.149Z,8.00
2023-02-13T09:52:54.933Z,8.00
2023-02-13T09:55:29.711Z,8.00
2023-02-13T09:58:29.350Z,8.00
2023-02-13T10:01:00.926Z,8.00
2023-02-13T10:03:46.787Z,8.00
2023-02-13T10:06:37.020Z,8.00
2023-02-13T10:09:13.784Z,8.00
2023-02-13T10:12:10.175Z,8.00
2023-02-13T10:14:49.202Z,8.00
2023-02-13T10:17:41.946Z,8.00
2023-02-13T10:20:30.895Z,8.10
2023-02-13T10:23:13.003Z,8.00
2023-02-13T10:26:07.925Z,8.10
2023-02-13T10:29:29.225Z,8.10
2023-02-13T10:32:02.925Z,8.10
2023-02-13T10:34:36.957Z,8.10
2023-02-13T10:37:06.426Z,8.10
2023-02-13T10:39:33.481Z,8.10
2023-02-13T10:42:27.113Z,8.10
2023-02-13T10:45:30.308Z,8.20
2023-02-13T10:48:08.765Z,8.20
2023-02-13T10:50:54.682Z,8.20
2023-02-13T10:53:50.433Z,8.30
2023-02-13T10:56:39.828Z,8.30
2023-02-13T10:59:43.933Z,8.30
2023-02-13T11:02:21.446Z,8.30
2023-02-13T11:04:49.860Z,8.40
2023-02-13T11:07:22.143Z,8.40
2023-02-13T11:09:58.283Z,8.40
2023-02-13T11:12:31.826Z,8.40
2023-02-13T11:15:10.435Z,8.40
2023-02-13T11:17:41.250Z,8.40
2023-02-13T11:20:36.224Z,8.40
2023-02-13T11:23:30.297Z,8.40
2023-02-13T11:26:14.765Z,8.40
2023-02-13T11:29:19.124Z,8.40
2023-02-13T11:31:46.531Z,8.40
2023-02-13T11:34:23.233Z,8.40
2023-02-13T11:36:56.064Z,8.40
2023-02-13T11:39:26.932Z,8.40
2023-02-13T11:41:54.129Z,8.40
2023-02-13T11:44:31.475Z,8.40
2023-02-13T11:47:01.263Z,8.40
2023-02-13T11:49:32.956Z,8.40
2023-02-13T11:52:07.960Z,8.50
2023-02-13T11:54:36.178Z,8.50
2023-02-13T11:57:23.214Z,8.50
2023-02-13T11:59:52.992Z,8.50
2023-02-13T12:02:27.699Z,8.50
2023-02-13T12:05:16.077Z,8.50
2023-02-13T12:07:45.102Z,8.60
2023-02-13T12:10:26.774Z,8.60
2023-02-13T12:12:58.617Z,8.60
2023-02-13T12:15:29.713Z,8.60
2023-02-13T12:18:09.086Z,8.60
2023-02-13T12:20:41.849Z,8.60
2023-02-13T12:23:18.091Z,8.60
2023-02-13T12:26:17.110Z,8.70
2023-02-13T12:28:57.843Z,8.70
2023-02-13T12:31:40.401Z,8.70
2023-02-13T12:34:27.037Z,8.70
2023-02-13T12:37:32.757Z,8.70
2023-02-13T12:40:30.364Z,8.70
2023-02-13T12:43:19.322Z,8.70
2023-02-13T12:45:49.869Z,8.70
2023-02-13T12:48:33.958Z,8.80
2023-02-13T12:51:08.272Z,8.80
2023-02-13T12:53:59.846Z,8.80
2023-02-13T12:56:37.977Z,8.80
2023-02-13T12:59:08.246Z,8.80
2023-02-13T13:01:58.242Z,8.80
2023-02-13T13:04:34.560Z,8.80
2023-02-13T13:07:28.445Z,8.80
2023-02-13T13:09:58.357Z,8.70
2023-02-13T13:12:46.480Z,8.70
2023-02-13T13:15:25.995Z,8.70
2023-02-13T13:17:59.169Z,8.70
2023-02-13T13:21:04.343Z,8.70
2023-02-13T13:23:54.920Z,8.80
2023-02-13T13:26:36.279Z,8.80
2023-02-13T13:29:18.656Z,8.80
2023-02-13T13:31:54.470Z,8.80
2023-02-13T13:34:25.758Z,8.80
2023-02-13T13:37:07.462Z,8.80
2023-02-13T13:39:59.899Z,8.80
2023-02-13T13:42:46.737Z,8.80
2023-02-13T13:45:37.745Z,8.80
2023-02-13T13:48:38.389Z,8.80
2023-02-13T13:51:13.255Z,8.80
2023-02-13T13:54:06.385Z,8.80
2023-02-13T13:57:02.326Z,8.80
2023-02-13T13:59:37.963Z,8.80
2023-02-13T14:02:20.332Z,8.80
2023-02-13T14:05:24.940Z,8.80
2023-02-13T14:07:55.424Z,8.80
2023-02-13T14:10:26.068Z,8.80
2023-02-13T14:12:58.276Z,8.80
2023-02-13T14:15:35.070Z,8.80
2023-02-13T14:18:08.408Z,8.80
2023-02-13T14:20:50.048Z,8.80
2023-02-13T14:23:28.419Z,8.80
2023-02-13T14:26:17.676Z,8.80
2023-02-13T14:28:51.008Z,8.70
2023-02-13T14:31:41.132Z,8.70
2023-02-13T14:34:18.559Z,8.80
2023-02-13T14:37:23.887Z,8.80
2023-02-13T14:40:11.627Z,8.80
2023-02-13T14:42:40.551Z,8.70
2023-02-13T14:45:19.016Z,8.70
2023-02-13T14:47:56.904Z,8.70
2023-02-13T14:50:43.350Z,8.70
2023-02-13T14:53:23.806Z,8.70
2023-02-13T14:55:58.492Z,8.70
2023-02-13T14:58:35.856Z,8.60
2023-02-13T15:01:11.942Z,8.60
2023-02-13T15:03:49.314Z,8.60
2023-02-13T15:06:30.341Z,8.60
2023-02-13T15:09:02.544Z,8.60
2023-02-13T15:11:43.869Z,8.60
2023-02-13T15:14:20.033Z,8.50
2023-02-13T15:16:57.925Z,8.60
2023-02-13T15:19:27.115Z,8.60
2023-02-13T15:21:57.492Z,8.60
2023-02-13T15:24:25.850Z,8.60
2023-02-13T15:27:02.715Z,8.60
2023-02-13T15:29:40.891Z,8.60
2023-02-13T15:32:21.454Z,8.60
2023-02-13T15:34:49.998Z,8.60
2023-02-13T15:37:29.842Z,8.60
2023-02-13T15:40:15.841Z,8.60
2023-02-13T15:42:43.476Z,8.60
2023-02-13T15:45:18.653Z,8.50
2023-02-13T15:47:48.055Z,8.50
2023-02-13T15:50:31.013Z,8.50
2023-02-13T15:53:00.276Z,8.50
2023-02-13T15:55:31.822Z,8.40
2023-02-13T15:58:01.085Z,8.40
2023-02-13T16:00:35.124Z,8.40
2023-02-13T16:03:05.363Z,8.40
2023-02-13T16:05:40.921Z,8.40
2023-02-13T16:08:37.288Z,8.30
2023-02-13T16:11:32.605Z,8.30
2023-02-13T16:14:20.793Z,8.30
2023-02-13T16:16:58.414Z,8.30
2023-02-13T16:19:43.926Z,8.30
2023-02-13T16:22:43.884Z,8.30
2023-02-13T16:25:23.272Z,8.30
2023-02-13T16:27:59.857Z,8.30
2023-02-13T16:30:32.830Z,8.30
2023-02-13T16:33:21.554Z,8.30
2023-02-13T16:35:51.606Z,8.30
2023-02-13T16:38:38.071Z,8.30
2023-02-13T16:41:31.353Z,8.20
2023-02-13T16:44:21.928Z,8.20
2023-02-13T16:47:12.242Z,8.20
2023-02-13T16:49:39.457Z,8.20
2023-02-13T16:52:22.422Z,8.20
2023-02-13T16:54:58.982Z,8.10
2023-02-13T16:57:35.950Z,8.10
2023-02-13T17:00:19.496Z,8.10
2023-02-13T17:02:48.227Z,8.20
2023-02-13T17:05:20.549Z,8.10
2023-02-13T17:07:51.267Z,8.10
2023-02-13T17:10:19.990Z,8.10
2023-02-13T17:12:48.387Z,8.10
2023-02-13T17:15:18.623Z,8.10
2023-02-13T17:17:46.803Z,8.00
2023-02-13T17:20:34.101Z,8.00
2023-02-13T17:23:04.807Z,8.00
2023-02-13T17:25:37.047Z,8.00
2023-02-13T17:28:17.294Z,8.00
2023-02-13T17:30:45.571Z,8.00
2023-02-13T17:33:17.587Z,8.00
2023-02-13T17:35:48.444Z,8.00
2023-02-13T17:38:16.327Z,8.00
2023-02-13T17:40:44.287Z,8.00
2023-02-13T17:43:17.448Z,8.00
2023-02-13T17:45:46.041Z,8.00
2023-02-13T17:48:13.475Z,8.00
2023-02-13T17:50:40.880Z,8.00
2023-02-13T17:53:19.296Z,8.00
2023-02-13T17:55:46.670Z,8.00
2023-02-13T17:58:13.796Z,8.00
2023-02-13T18:00:41.029Z,8.00
2023-02-13T18:03:08.236Z,8.00
2023-02-13T18:05:35.683Z,7.90
2023-02-13T18:08:06.073Z,7.90
2023-02-13T18:10:36.121Z,7.90
2023-02-13T18:13:04.720Z,7.90
2023-02-13T18:15:38.944Z,7.90
2023-02-13T18:18:06.690Z,7.90
2023-02-13T18:20:33.936Z,7.90
2023-02-13T18:23:01.174Z,7.90
2023-02-13T18:25:29.355Z,7.80
2023-02-13T18:27:56.685Z,7.90
2023-02-13T18:30:24.271Z,7.80
2023-02-13T18:32:53.875Z,7.80
2023-02-13T18:35:27.894Z,7.80
2023-02-13T18:37:55.171Z,7.80
2023-02-13T18:40:22.751Z,7.80
2023-02-13T18:42:51.286Z,7.80
2023-02-13T18:45:18.662Z,7.80
2023-02-13T18:47:45.746Z,7.80
2023-02-13T18:50:14.069Z,7.80
2023-02-13T18:52:41.177Z,7.80
2023-02-13T18:55:09.611Z,7.80
2023-02-13T18:57:36.770Z,7.80
2023-02-13T19:00:05.610Z,7.80
2023-02-13T19:02:33.607Z,7.80
2023-02-13T19:05:01.524Z,7.80
2023-02-13T19:07:29.281Z,7.80
2023-02-13T19:09:56.640Z,7.80
2023-02-13T19:12:25.042Z,7.80
2023-02-13T19:14:52.841Z,7.70
2023-02-13T19:17:20.157Z,7.70
2023-02-13T19:19:49.223Z,7.70
2023-02-13T19:22:16.936Z,7.70
2023-02-13T19:24:44.591Z,7.70
2023-02-13T19:27:12.097Z,7.70
2023-02-13T19:29:39.624Z,7.70
2023-02-13T19:32:07.457Z,7.70
2023-02-13T19:34:34.962Z,7.70
2023-02-13T19:37:02.243Z,7.60
2023-02-13T19:39:29.482Z,7.60
2023-02-13T19:41:56.817Z,7.60
2023-02-13T19:44:26.375Z,7.60
2023-02-13T19:46:53.627Z,7.60
2023-02-13T19:49:22.608Z,7.60
2023-02-13T19:51:52.870Z,7.50
2023-02-13T19:54:21.555Z,7.60
2023-02-13T19:56:48.750Z,7.60
2023-02-13T19:59:16.004Z,7.50
2023-02-13T20:01:43.351Z,7.60
2023-02-13T20:04:12.303Z,7.50
2023-02-13T20:06:40.367Z,7.50
2023-02-13T20:09:12.432Z,7.50
2023-02-13T20:11:41.241Z,7.50
2023-02-13T20:14:14.718Z,7.50
2023-02-13T20:16:43.281Z,7.50
2023-02-13T20:19:11.908Z,7.50
2023-02-13T20:21:41.573Z,7.50
2023-02-13T20:24:10.218Z,7.40
2023-02-13T20:26:38.291Z,7.40
2023-02-13T20:29:06.219Z,7.40
2023-02-13T20:31:36.846Z,7.30
2023-02-13T20:34:06.973Z,7.30
2023-02-13T20:36:35.038Z,7.30
2023-02-13T20:39:05.155Z,7.30
2023-02-13T20:41:34.927Z,7.30
2023-02-13T20:44:05.727Z,7.30
2023-02-13T20:46:35.543Z,7.30
2023-02-13T20:49:02.725Z,7.30
2023-02-13T20:51:30.032Z,7.20
2023-02-13T20:53:57.774Z,7.30
2023-02-13T20:56:26.724Z,7.30
2023-02-13T20:58:56.584Z,7.30
2023-02-13T21:01:28.699Z,7.30
2023-02-13T21:03:56.849Z,7.20
2023-02-13T21:06:29.836Z,7.20
2023-02-13T21:08:57.359Z,7.20
2023-02-13T21:11:24.944Z,7.20
2023-02-13T21:13:52.481Z,7.10
2023-02-13T21:16:22.688Z,7.10
2023-02-13T21:18:52.220Z,7.20
2023-02-13T21:21:20.193Z,7.20
2023-02-13T21:23:47.627Z,7.20
2023-02-13T21:26:17.207Z,7.20
2023-02-13T21:28:46.678Z,7.20
2023-02-13T21:31:28.104Z,7.20
2023-02-13T21:34:00.618Z,7.20
2023-02-13T21:36:28.304Z,7.10
2023-02-13T21:38:56.230Z,7.10
2023-02-13T21:41:24.296Z,7.20
2023-02-13T21:43:51.878Z,7.10
2023-02-13T21:46:24.994Z,7.20
2023-02-13T21:49:00.007Z,7.10
2023-02-13T21:51:29.893Z,7.10
2023-02-13T21:53:58.041Z,7.10
2023-02-13T21:56:28.102Z,7.10
2023-02-13T21:58:56.738Z,7.10
2023-02-13T22:01:38.015Z,7.10
2023-02-13T22:04:08.526Z,7.10
2023-02-13T22:06:38.083Z,7.10
2023-02-13T22:09:11.646Z,7.10
2023-02-13T22:11:39.443Z,7.10
2023-02-13T22:14:08.971Z,7.00
2023-02-13T22:16:38.042Z,7.10
2023-02-13T22:19:06.415Z,7.00
2023-02-13T22:21:34.832Z,7.00
2023-02-13T22:24:02.554Z,7.10
2023-02-13T22:26:35.062Z,7.00
2023-02-13T22:29:07.412Z,7.00
2023-02-13T22:31:35.287Z,7.00
2023-02-13T22:34:05.370Z,7.00
2023-02-13T22:36:35.302Z,6.90
2023-02-13T22:39:02.542Z,6.90
2023-02-13T22:41:30.097Z,6.90
2023-02-13T22:43:57.947Z,6.80
2023-02-13T22:46:31.099Z,6.80
2023-02-13T22:48:59.395Z,6.80
2023-02-13T22:51:35.112Z,6.80
2023-02-13T22:54:03.294Z,6.80
2023-02-13T22:56:31.626Z,6.80
2023-02-13T22:58:59.667Z,6.80
2023-02-13T23:01:28.704Z,6.70
2023-02-13T23:03:56.857Z,6.70
2023-02-13T23:06:25.391Z,6.80
2023-02-13T23:08:53.971Z,6.70
2023-02-13T23:11:42.474Z,6.70
2023-02-13T23:14:10.516Z,6.70
2023-02-13T23:17:00.438Z,6.70
2023-02-13T23:19:30.190Z,6.70
2023-02-13T23:22:03.871Z,6.70
2023-02-13T23:24:32.429Z,6.60
2023-02-13T23:27:00.689Z,6.70
2023-02-13T23:29:29.705Z,6.70
2023-02-13T23:31:57.077Z,6.60
2023-02-13T23:34:24.445Z,6.60
2023-02-13T23:36:53.048Z,6.60
2023-02-13T23:39:22.029Z,6.60
2023-02-13T23:41:49.405Z,6.50
2023-02-13T23:44:16.806Z,6.50
2023-02-13T23:46:44.327Z,6.50
2023-02-13T23:49:11.526Z,6.50
2023-02-13T23:51:38.791Z,6.50
2023-02-13T23:54:06.416Z,6.50
2023-02-13T23:56:33.683Z,6.50
2023-02-13T23:59:00.890Z,6.50
